Etusivu
METAR-TAF:

METAR-TAF

Lentoasemat :

Searcy Municipal Airport

Searcy, Arkansas, Yhdysvallat

Leveyspiiri: 35-12-43N, Pituuspiiri: 091-44-14W, korkeus merenpinnasta: 81 m

Tämänhetkinen sää

Tämä raportti tehtiin 58 minuuttia sitten, kello 00.56 UTC
Tuuli 4 kn idästä/kaakosta
Lämpötila 29°C
Kosteus 74%
Ilmanpaine 1013 hPa
Näkyvyys: 16.1 km
selkeää

METAR: KSRC 060056Z AUTO 11004KT 10SM CLR 29/24 A2991 RMK AO2 LTG DSNT S SLP125 T02940239

Aika: 20:54 (01:54 UTC)


TAF: puuttuu

Säähavainnot ja -ennusteet yli 4000 lentoasemalta (METAR- ja TAF-raportit).

Käytössä olevat sääasemat on merkitty karttaan keltaisilla ja punaisilla pisteillä.

Aseta hiiri pisteen päälle nähdäksesi sääaseman nimen.

Klikkaa sitten nähdäksesi säähavainnot ja -ennusteet.

Kartan vaihtaminen: klikkaa mustalla rastilla varustettuja vihreitä pisteitä, niin voit zoomata sisään; viivalla varustettua vihreää pistettä, niin voit zoomata ulos tai vihreitä nuolia, niin pääset viereisille kartoille.


METAR-TAF: